createdAt,value
2022-12-29T00:00:55.116Z,55.90
2022-12-29T00:03:21.901Z,55.80
2022-12-29T00:05:55.684Z,55.80
2022-12-29T00:08:40.010Z,55.70
2022-12-29T00:11:15.698Z,55.80
2022-12-29T00:14:01.734Z,55.90
2022-12-29T00:16:28.851Z,55.70
2022-12-29T00:18:55.575Z,55.60
2022-12-29T00:21:42.229Z,55.80
2022-12-29T00:24:41.399Z,55.80
2022-12-29T00:27:26.795Z,55.80
2022-12-29T00:30:12.279Z,55.70
2022-12-29T00:32:57.605Z,55.80
2022-12-29T00:35:32.645Z,55.90
2022-12-29T00:38:21.988Z,55.80
2022-12-29T00:41:07.372Z,55.70
2022-12-29T00:43:52.869Z,55.80
2022-12-29T00:46:20.375Z,55.80
2022-12-29T00:49:05.516Z,55.80
2022-12-29T00:51:32.140Z,55.70
2022-12-29T00:53:58.726Z,55.80
2022-12-29T00:56:25.395Z,55.80
2022-12-29T00:58:52.166Z,55.80
2022-12-29T01:01:18.869Z,55.80
2022-12-29T01:03:46.102Z,55.80
2022-12-29T01:06:13.254Z,55.80
2022-12-29T01:08:40.896Z,55.80
2022-12-29T01:11:10.460Z,55.80
2022-12-29T01:13:39.091Z,55.90
2022-12-29T01:16:06.641Z,55.90
2022-12-29T01:18:34.296Z,55.90
2022-12-29T01:21:05.844Z,55.90
2022-12-29T01:23:33.755Z,55.90
2022-12-29T01:26:10.442Z,55.90
2022-12-29T01:28:39.689Z,55.90
2022-12-29T01:31:09.520Z,55.80
2022-12-29T01:33:36.457Z,55.80
2022-12-29T01:36:08.655Z,55.80
2022-12-29T01:38:37.079Z,55.90
2022-12-29T01:41:04.376Z,55.90
2022-12-29T01:43:41.276Z,55.80
2022-12-29T01:46:32.617Z,55.90
2022-12-29T01:49:09.520Z,55.90
2022-12-29T01:51:44.169Z,55.90
2022-12-29T01:54:19.966Z,55.90
2022-12-29T01:56:47.908Z,55.80
2022-12-29T01:59:22.717Z,55.80
2022-12-29T02:01:50.351Z,55.90
2022-12-29T02:04:17.250Z,55.80
2022-12-29T02:06:57.031Z,56.30
2022-12-29T02:09:24.479Z,55.80
2022-12-29T02:11:52.365Z,55.80
2022-12-29T02:14:19.143Z,55.80
2022-12-29T02:17:09.891Z,55.80
2022-12-29T02:20:14.099Z,55.90
2022-12-29T02:22:59.343Z,55.80
2022-12-29T02:26:00.285Z,55.90
2022-12-29T02:29:00.778Z,55.80
2022-12-29T02:31:53.426Z,55.90
2022-12-29T02:34:41.915Z,55.90
2022-12-29T02:37:43.588Z,55.80
2022-12-29T02:40:32.077Z,55.80
2022-12-29T02:43:02.869Z,55.80
2022-12-29T02:45:50.924Z,55.80
2022-12-29T02:48:40.090Z,55.80
2022-12-29T02:51:29.589Z,55.80
2022-12-29T02:54:26.110Z,56.40
2022-12-29T02:56:52.769Z,55.80
2022-12-29T02:59:19.562Z,55.80
2022-12-29T03:02:15.414Z,55.80
2022-12-29T03:05:06.335Z,55.80
2022-12-29T03:07:36.782Z,55.80
2022-12-29T03:10:35.352Z,55.70
2022-12-29T03:13:40.540Z,55.80
2022-12-29T03:16:32.849Z,55.80
2022-12-29T03:19:25.858Z,55.80
2022-12-29T03:22:21.359Z,55.80
2022-12-29T03:24:53.278Z,55.80
2022-12-29T03:27:35.249Z,55.90
2022-12-29T03:30:05.663Z,55.80
2022-12-29T03:32:41.474Z,55.90
2022-12-29T03:35:10.772Z,55.90
2022-12-29T03:37:41.731Z,55.90
2022-12-29T03:40:09.274Z,55.90
2022-12-29T03:42:37.860Z,56.10
2022-12-29T03:45:06.792Z,56.00
2022-12-29T03:47:33.574Z,55.90
2022-12-29T03:50:00.959Z,55.90
2022-12-29T03:52:27.582Z,55.90
2022-12-29T03:54:54.195Z,55.90
2022-12-29T03:57:20.903Z,55.90
2022-12-29T03:59:47.520Z,55.90
2022-12-29T04:02:14.389Z,55.90
2022-12-29T04:04:41.201Z,55.90
2022-12-29T04:07:07.804Z,55.90
2022-12-29T04:09:34.473Z,55.90
2022-12-29T04:12:01.136Z,56.00
2022-12-29T04:14:27.778Z,55.90
2022-12-29T04:16:54.388Z,55.90
2022-12-29T04:19:21.080Z,55.90
2022-12-29T04:21:47.779Z,55.90
2022-12-29T04:24:15.232Z,55.90
2022-12-29T04:26:42.575Z,56.00
2022-12-29T04:29:09.246Z,55.90
2022-12-29T04:31:36.026Z,55.90
2022-12-29T04:34:02.827Z,55.90
2022-12-29T04:36:30.218Z,55.90
2022-12-29T04:38:57.076Z,55.90
2022-12-29T04:41:23.864Z,55.90
2022-12-29T04:43:50.734Z,55.90
2022-12-29T04:46:17.524Z,55.90
2022-12-29T04:48:44.990Z,55.90
2022-12-29T04:51:11.614Z,55.90
2022-12-29T04:53:38.285Z,55.90
2022-12-29T04:56:05.181Z,55.90
2022-12-29T04:58:31.889Z,56.00
2022-12-29T05:00:58.569Z,56.00
2022-12-29T05:03:25.381Z,55.90
2022-12-29T05:05:55.974Z,55.90
2022-12-29T05:08:27.958Z,56.50
2022-12-29T05:10:55.359Z,55.90
2022-12-29T05:13:21.995Z,55.90
2022-12-29T05:15:54.070Z,55.90
2022-12-29T05:18:21.032Z,56.00
2022-12-29T05:20:48.132Z,55.90
2022-12-29T05:23:15.324Z,55.90
2022-12-29T05:25:42.041Z,55.90
2022-12-29T05:28:08.681Z,56.00
2022-12-29T05:30:35.300Z,55.90
2022-12-29T05:33:01.898Z,55.90
2022-12-29T05:35:28.542Z,55.90
2022-12-29T05:37:55.152Z,55.90
2022-12-29T05:40:21.756Z,55.90
2022-12-29T05:42:48.455Z,55.90
2022-12-29T05:45:15.157Z,55.90
2022-12-29T05:47:41.810Z,55.90
2022-12-29T05:50:08.896Z,55.90
2022-12-29T05:52:35.566Z,55.80
2022-12-29T05:55:02.260Z,55.90
2022-12-29T05:57:28.981Z,55.90
2022-12-29T05:59:55.609Z,55.90
2022-12-29T06:02:22.356Z,55.80
2022-12-29T06:04:49.131Z,55.90
2022-12-29T06:07:15.986Z,55.90
2022-12-29T06:09:42.594Z,55.90
2022-12-29T06:12:09.243Z,55.90
2022-12-29T06:14:35.911Z,55.90
2022-12-29T06:17:02.534Z,55.90
2022-12-29T06:19:29.233Z,55.90
2022-12-29T06:21:56.078Z,55.90
2022-12-29T06:24:22.930Z,55.90
2022-12-29T06:26:49.508Z,55.90
2022-12-29T06:29:18.058Z,55.90
2022-12-29T06:31:48.016Z,55.90
2022-12-29T06:34:14.703Z,55.90
2022-12-29T06:36:42.199Z,55.90
2022-12-29T06:39:08.960Z,55.90
2022-12-29T06:41:35.647Z,55.90
2022-12-29T06:44:02.342Z,55.90
2022-12-29T06:46:29.064Z,55.90
2022-12-29T06:48:55.822Z,55.80
2022-12-29T06:51:22.475Z,55.90
2022-12-29T06:53:49.094Z,55.90
2022-12-29T06:56:15.685Z,55.90
2022-12-29T06:58:42.313Z,55.90
2022-12-29T07:01:08.999Z,55.90
2022-12-29T07:03:35.628Z,55.90
2022-12-29T07:06:02.504Z,55.90
2022-12-29T07:08:29.200Z,55.90
2022-12-29T07:10:55.872Z,55.90
2022-12-29T07:13:22.523Z,55.90
2022-12-29T07:15:49.103Z,55.90
2022-12-29T07:18:15.765Z,55.90
2022-12-29T07:20:42.394Z,55.90
2022-12-29T07:23:09.227Z,56.00
2022-12-29T07:25:36.923Z,55.90
2022-12-29T07:28:04.710Z,55.90
2022-12-29T07:30:31.337Z,55.90
2022-12-29T07:32:58.361Z,55.90
2022-12-29T07:35:25.124Z,56.00
2022-12-29T07:37:51.798Z,56.00
2022-12-29T07:40:18.389Z,55.90
2022-12-29T07:42:45.027Z,56.00
2022-12-29T07:45:11.794Z,55.90
2022-12-29T07:47:38.522Z,55.90
2022-12-29T07:50:06.065Z,56.00
2022-12-29T07:52:32.703Z,56.00
2022-12-29T07:54:59.794Z,55.90
2022-12-29T07:57:31.552Z,55.90
2022-12-29T07:59:59.207Z,55.90
2022-12-29T08:02:27.428Z,56.00
2022-12-29T08:04:54.260Z,56.00
2022-12-29T08:07:20.944Z,55.90
2022-12-29T08:09:47.549Z,56.00
2022-12-29T08:12:14.245Z,56.00
2022-12-29T08:14:40.926Z,56.00
2022-12-29T08:17:07.631Z,56.00
2022-12-29T08:19:34.278Z,55.90
2022-12-29T08:22:01.093Z,56.00
2022-12-29T08:24:27.769Z,56.00
2022-12-29T08:26:54.471Z,56.00
2022-12-29T08:29:22.343Z,56.00
2022-12-29T08:31:49.204Z,56.00
2022-12-29T08:34:15.897Z,56.00
2022-12-29T08:36:42.574Z,56.00
2022-12-29T08:39:09.212Z,56.00
2022-12-29T08:41:35.886Z,56.00
2022-12-29T08:44:02.579Z,56.00
2022-12-29T08:46:29.238Z,56.00
2022-12-29T08:48:55.909Z,56.00
2022-12-29T08:51:24.848Z,56.00
2022-12-29T08:53:52.279Z,56.00
2022-12-29T08:56:19.184Z,56.00
2022-12-29T08:58:45.912Z,56.00
2022-12-29T09:01:12.655Z,56.00
2022-12-29T09:04:13.644Z,56.00
2022-12-29T09:06:25.911Z,56.00
2022-12-29T09:08:55.572Z,56.00
2022-12-29T09:11:24.793Z,56.00
2022-12-29T09:13:52.254Z,56.00
2022-12-29T09:16:21.748Z,56.00
2022-12-29T09:18:48.385Z,56.10
2022-12-29T09:21:15.255Z,56.00
2022-12-29T09:23:41.834Z,56.00
2022-12-29T09:26:08.839Z,56.00
2022-12-29T09:28:35.594Z,56.00
2022-12-29T09:31:02.647Z,56.00
2022-12-29T09:33:29.396Z,56.00
2022-12-29T09:35:57.990Z,56.00
2022-12-29T09:38:25.751Z,56.00
2022-12-29T09:41:01.374Z,56.00
2022-12-29T09:43:46.573Z,56.00
2022-12-29T09:46:27.860Z,56.00
2022-12-29T09:49:30.065Z,56.00
2022-12-29T09:52:06.049Z,56.00
2022-12-29T09:55:02.414Z,56.00
2022-12-29T09:57:57.320Z,56.00
2022-12-29T10:00:37.435Z,56.00
2022-12-29T10:03:15.188Z,56.00
2022-12-29T10:05:58.860Z,56.00
2022-12-29T10:08:42.819Z,56.00
2022-12-29T10:11:47.692Z,56.00
2022-12-29T10:14:27.200Z,56.00
2022-12-29T10:17:12.268Z,56.00
2022-12-29T10:20:40.384Z,56.00
2022-12-29T10:23:25.751Z,56.00
2022-12-29T10:25:56.237Z,56.00
2022-12-29T10:28:49.766Z,56.60
2022-12-29T10:31:34.810Z,56.00
2022-12-29T10:34:06.623Z,56.00
2022-12-29T10:36:49.623Z,56.00
2022-12-29T10:39:34.951Z,56.00
2022-12-29T10:42:26.746Z,56.00
2022-12-29T10:44:55.250Z,56.00
2022-12-29T10:47:26.229Z,56.00
2022-12-29T10:49:53.647Z,56.00
2022-12-29T10:52:21.852Z,56.00
2022-12-29T10:54:59.933Z,56.00
2022-12-29T10:57:45.196Z,56.00
2022-12-29T11:00:21.647Z,56.00
2022-12-29T11:03:13.861Z,56.00
2022-12-29T11:06:07.126Z,56.00
2022-12-29T11:08:42.134Z,55.90
2022-12-29T11:11:11.009Z,56.00
2022-12-29T11:13:56.211Z,55.90
2022-12-29T11:16:35.335Z,56.00
2022-12-29T11:19:02.999Z,55.90
2022-12-29T11:21:40.508Z,55.90
2022-12-29T11:24:41.778Z,56.20
2022-12-29T11:27:25.950Z,55.90
2022-12-29T11:29:54.792Z,55.90
2022-12-29T11:32:28.505Z,55.90
2022-12-29T11:34:56.796Z,55.90
2022-12-29T11:37:29.213Z,55.90
2022-12-29T11:40:04.217Z,55.90
2022-12-29T11:42:42.696Z,55.90
2022-12-29T11:45:18.846Z,55.90
2022-12-29T11:47:54.295Z,55.90
2022-12-29T11:50:24.790Z,55.90
2022-12-29T11:52:58.980Z,55.90
2022-12-29T11:55:27.960Z,55.90
2022-12-29T11:57:58.201Z,55.90
2022-12-29T12:00:26.901Z,55.80
2022-12-29T12:03:14.443Z,55.80
2022-12-29T12:05:55.149Z,55.80
2022-12-29T12:08:47.778Z,55.80
2022-12-29T12:11:37.049Z,55.80
2022-12-29T12:14:13.698Z,55.80
2022-12-29T12:16:55.288Z,55.80
2022-12-29T12:19:47.844Z,55.80
2022-12-29T12:22:22.637Z,55.80
2022-12-29T12:24:56.903Z,55.80
2022-12-29T12:27:41.286Z,55.80
2022-12-29T12:30:21.065Z,55.80
2022-12-29T12:32:56.476Z,55.80
2022-12-29T12:35:44.892Z,56.30
2022-12-29T12:38:20.520Z,55.70
2022-12-29T12:41:16.721Z,55.80
2022-12-29T12:43:59.206Z,55.70
2022-12-29T12:46:37.758Z,55.80
2022-12-29T12:49:04.444Z,55.80
2022-12-29T12:51:30.997Z,55.70
2022-12-29T12:54:25.652Z,55.70
2022-12-29T12:57:12.665Z,55.70
2022-12-29T13:00:01.418Z,55.70
2022-12-29T13:02:33.977Z,55.80
2022-12-29T13:05:03.608Z,55.80
2022-12-29T13:08:01.412Z,55.80
2022-12-29T13:10:57.556Z,55.80
2022-12-29T13:13:54.915Z,55.80
2022-12-29T13:16:37.940Z,55.70
2022-12-29T13:19:16.906Z,55.70
2022-12-29T13:22:00.172Z,55.70
2022-12-29T13:24:50.511Z,55.70
2022-12-29T13:27:20.268Z,55.70
2022-12-29T13:30:01.145Z,55.60
2022-12-29T13:32:49.514Z,55.70
2022-12-29T13:35:43.753Z,55.60
2022-12-29T13:38:30.044Z,55.70
2022-12-29T13:41:25.276Z,55.70
2022-12-29T13:43:54.285Z,55.60
2022-12-29T13:46:29.256Z,55.70
2022-12-29T13:49:19.181Z,55.70
2022-12-29T13:52:04.829Z,55.70
2022-12-29T13:55:08.216Z,55.70
2022-12-29T13:57:59.439Z,55.70
2022-12-29T14:00:28.657Z,55.70
2022-12-29T14:03:10.799Z,55.70
2022-12-29T14:05:37.619Z,55.70
2022-12-29T14:08:06.780Z,55.70
2022-12-29T14:10:36.293Z,55.70
2022-12-29T14:13:11.245Z,55.70
2022-12-29T14:15:43.889Z,55.80
2022-12-29T14:18:18.608Z,55.80
2022-12-29T14:20:56.302Z,55.80
2022-12-29T14:23:34.879Z,55.80
2022-12-29T14:26:07.727Z,55.80
2022-12-29T14:28:39.652Z,55.80
2022-12-29T14:31:26.348Z,55.80
2022-12-29T14:34:08.605Z,55.80
2022-12-29T14:36:39.539Z,55.80
2022-12-29T14:39:38.004Z,55.80
2022-12-29T14:42:09.442Z,55.80
2022-12-29T14:44:48.384Z,55.80
2022-12-29T14:47:36.004Z,55.80
2022-12-29T14:50:07.976Z,55.80
2022-12-29T14:52:49.719Z,55.80
2022-12-29T14:55:16.281Z,55.80
2022-12-29T14:57:59.128Z,55.80
2022-12-29T15:00:33.851Z,55.80
2022-12-29T15:03:38.309Z,55.80
2022-12-29T15:06:09.680Z,55.80
2022-12-29T15:08:51.141Z,55.80
2022-12-29T15:11:33.050Z,55.80
2022-12-29T15:13:59.732Z,55.80
2022-12-29T15:16:37.386Z,55.80
2022-12-29T15:19:06.059Z,55.90
2022-12-29T15:21:37.122Z,55.90
2022-12-29T15:24:04.946Z,55.90
2022-12-29T15:26:40.305Z,55.80
2022-12-29T15:29:27.126Z,55.80
2022-12-29T15:31:53.929Z,55.90
2022-12-29T15:34:22.405Z,55.90
2022-12-29T15:36:51.769Z,56.40
2022-12-29T15:39:28.754Z,55.80
2022-12-29T15:42:00.854Z,55.80
2022-12-29T15:44:34.045Z,55.80
2022-12-29T15:47:13.790Z,55.90
2022-12-29T15:49:43.727Z,55.90
2022-12-29T15:52:11.099Z,55.80
2022-12-29T15:54:38.662Z,55.90
2022-12-29T15:57:22.296Z,55.90
2022-12-29T15:59:49.185Z,56.40
2022-12-29T16:02:16.226Z,55.90
2022-12-29T16:05:15.548Z,55.90
2022-12-29T16:07:40.837Z,55.80
2022-12-29T16:10:43.595Z,55.90
2022-12-29T16:13:39.659Z,55.90
2022-12-29T16:16:20.082Z,55.90
2022-12-29T16:18:50.661Z,55.90
2022-12-29T16:21:30.126Z,55.90
2022-12-29T16:24:01.408Z,55.90
2022-12-29T16:26:28.302Z,55.90
2022-12-29T16:28:58.798Z,55.90
2022-12-29T16:31:37.403Z,55.90
2022-12-29T16:34:32.701Z,56.00
2022-12-29T16:37:04.488Z,55.90
2022-12-29T16:39:34.306Z,56.00
2022-12-29T16:42:01.446Z,56.00
2022-12-29T16:44:30.880Z,56.00
2022-12-29T16:47:02.837Z,56.00
2022-12-29T16:49:31.936Z,55.90
2022-12-29T16:51:58.677Z,56.00
2022-12-29T16:54:32.748Z,56.00
2022-12-29T16:57:00.111Z,56.00
2022-12-29T16:59:40.140Z,56.00
2022-12-29T17:02:13.573Z,56.00
2022-12-29T17:04:40.438Z,56.00
2022-12-29T17:07:18.569Z,56.00
2022-12-29T17:09:45.416Z,56.00
2022-12-29T17:12:18.084Z,56.00
2022-12-29T17:14:48.123Z,56.00
2022-12-29T17:17:36.054Z,56.00
2022-12-29T17:20:24.485Z,56.00
2022-12-29T17:22:54.490Z,56.00
2022-12-29T17:25:31.305Z,56.00
2022-12-29T17:28:10.745Z,56.00
2022-12-29T17:30:37.368Z,56.00
2022-12-29T17:33:14.943Z,56.70
2022-12-29T17:35:41.669Z,56.00
2022-12-29T17:38:28.149Z,56.00
2022-12-29T17:40:55.059Z,56.00
2022-12-29T17:43:21.955Z,56.00
2022-12-29T17:45:53.648Z,56.00
2022-12-29T17:48:20.653Z,56.10
2022-12-29T17:50:49.922Z,56.00
2022-12-29T17:53:21.406Z,56.00
2022-12-29T17:55:48.121Z,56.00
2022-12-29T17:58:36.471Z,56.10
2022-12-29T18:01:04.353Z,56.00
2022-12-29T18:03:34.335Z,56.10
2022-12-29T18:06:01.764Z,56.00
2022-12-29T18:08:29.368Z,56.00
2022-12-29T18:10:56.373Z,56.10
2022-12-29T18:13:30.309Z,56.00
2022-12-29T18:16:02.874Z,56.10
2022-12-29T18:18:29.613Z,56.00
2022-12-29T18:20:59.691Z,56.10
2022-12-29T18:23:28.651Z,56.10
2022-12-29T18:26:01.759Z,56.10
2022-12-29T18:28:29.233Z,56.00
2022-12-29T18:30:57.738Z,56.10
2022-12-29T18:33:26.671Z,56.00
2022-12-29T18:36:04.803Z,56.10
2022-12-29T18:38:31.866Z,56.10
2022-12-29T18:41:00.113Z,56.10
2022-12-29T18:43:26.845Z,56.00
2022-12-29T18:45:53.484Z,56.10
2022-12-29T18:48:20.594Z,56.10
2022-12-29T18:50:51.760Z,56.10
2022-12-29T18:53:25.196Z,56.10
2022-12-29T18:55:53.020Z,56.10
2022-12-29T18:58:19.876Z,56.10
2022-12-29T19:00:47.551Z,56.00
2022-12-29T19:03:16.950Z,56.10
2022-12-29T19:05:45.681Z,56.10
2022-12-29T19:08:13.238Z,56.10
2022-12-29T19:10:40.953Z,56.10
2022-12-29T19:13:11.451Z,56.10
2022-12-29T19:15:38.137Z,56.10
2022-12-29T19:18:42.525Z,56.10
2022-12-29T19:20:56.762Z,56.10
2022-12-29T19:23:26.207Z,56.10
2022-12-29T19:25:55.384Z,56.10
2022-12-29T19:28:27.862Z,56.10
2022-12-29T19:30:59.526Z,56.10
2022-12-29T19:33:26.748Z,56.20
2022-12-29T19:35:53.436Z,56.10
2022-12-29T19:38:20.585Z,56.10
2022-12-29T19:40:50.890Z,56.10
2022-12-29T19:43:18.408Z,56.10
2022-12-29T19:45:45.725Z,56.10
2022-12-29T19:48:18.471Z,56.20
2022-12-29T19:50:45.716Z,56.10
2022-12-29T19:53:12.981Z,56.70
2022-12-29T19:55:46.969Z,56.10
2022-12-29T19:58:14.428Z,56.10
2022-12-29T20:00:42.588Z,56.20
2022-12-29T20:03:09.658Z,56.20
2022-12-29T20:05:36.897Z,56.20
2022-12-29T20:08:03.653Z,56.20
2022-12-29T20:10:30.323Z,56.20
2022-12-29T20:12:58.517Z,56.20
2022-12-29T20:15:25.307Z,56.20
2022-12-29T20:20:38.552Z,56.20
2022-12-29T20:23:05.238Z,56.20
2022-12-29T20:25:44.657Z,56.10
2022-12-29T20:28:12.729Z,56.20
2022-12-29T20:30:39.444Z,56.20
2022-12-29T20:33:08.329Z,56.10
2022-12-29T20:35:36.557Z,56.10
2022-12-29T20:38:03.993Z,56.20
2022-12-29T20:40:30.825Z,56.20
2022-12-29T20:42:57.456Z,56.20
2022-12-29T20:45:24.250Z,56.20
2022-12-29T20:47:51.001Z,56.10
2022-12-29T20:50:17.704Z,56.20
2022-12-29T20:52:44.589Z,56.20
2022-12-29T20:55:11.185Z,56.20
2022-12-29T20:58:05.511Z,56.20
2022-12-29T21:00:26.320Z,56.20
2022-12-29T21:02:53.370Z,56.20
2022-12-29T21:05:25.129Z,56.20
2022-12-29T21:07:53.233Z,56.20
2022-12-29T21:10:20.375Z,56.20
2022-12-29T21:12:48.504Z,56.20
2022-12-29T21:15:15.703Z,56.20
2022-12-29T21:17:45.752Z,56.20
2022-12-29T21:20:29.889Z,56.20
2022-12-29T21:23:00.980Z,56.20
2022-12-29T21:25:36.890Z,56.20
2022-12-29T21:28:04.958Z,56.20
2022-12-29T21:30:31.793Z,56.20
2022-12-29T21:32:59.078Z,56.20
2022-12-29T21:35:25.701Z,56.20
2022-12-29T21:37:52.965Z,56.20
2022-12-29T21:40:22.143Z,56.20
2022-12-29T21:42:49.418Z,56.20
2022-12-29T21:45:25.282Z,56.20
2022-12-29T21:48:23.547Z,56.80
2022-12-29T21:51:14.201Z,56.20
2022-12-29T21:53:43.873Z,56.20
2022-12-29T21:56:16.302Z,56.20
2022-12-29T21:59:07.459Z,56.20
2022-12-29T22:01:54.337Z,56.20
2022-12-29T22:04:43.317Z,56.20
2022-12-29T22:07:30.603Z,56.20
2022-12-29T22:10:15.999Z,56.20
2022-12-29T22:12:57.807Z,56.20
2022-12-29T22:15:25.208Z,56.20
2022-12-29T22:17:54.007Z,56.20
2022-12-29T22:20:23.260Z,56.20
2022-12-29T22:22:49.868Z,56.20
2022-12-29T22:25:16.880Z,56.20
2022-12-29T22:27:43.901Z,56.20
2022-12-29T22:30:11.945Z,56.20
2022-12-29T22:32:38.565Z,56.20
2022-12-29T22:35:08.412Z,56.20
2022-12-29T22:37:37.280Z,56.20
2022-12-29T22:40:05.233Z,56.20
2022-12-29T22:42:32.267Z,56.20
2022-12-29T22:44:58.954Z,56.20
2022-12-29T22:47:25.632Z,56.20
2022-12-29T22:49:52.310Z,56.20
2022-12-29T22:52:19.069Z,56.20
2022-12-29T22:54:45.712Z,56.20
2022-12-29T22:57:12.727Z,56.20
2022-12-29T22:59:40.008Z,56.20
2022-12-29T23:02:06.876Z,56.20
2022-12-29T23:07:20.398Z,56.20
2022-12-29T23:09:47.219Z,56.20
2022-12-29T23:12:13.977Z,56.20
2022-12-29T23:14:40.602Z,56.20
2022-12-29T23:17:07.224Z,56.20
2022-12-29T23:19:33.914Z,56.20
2022-12-29T23:22:01.129Z,56.30
2022-12-29T23:24:27.855Z,56.20
2022-12-29T23:26:54.459Z,56.20
2022-12-29T23:29:21.106Z,56.30
2022-12-29T23:31:48.387Z,56.20
2022-12-29T23:34:16.691Z,56.20
2022-12-29T23:36:43.611Z,56.20
2022-12-29T23:39:15.779Z,56.20
2022-12-29T23:41:42.337Z,56.20
2022-12-29T23:44:09.005Z,56.20
2022-12-29T23:46:36.871Z,56.20
2022-12-29T23:49:03.528Z,56.20
2022-12-29T23:51:30.120Z,56.20
2022-12-29T23:53:56.887Z,56.20
2022-12-29T23:56:23.940Z,56.20
2022-12-29T23:58:51.344Z,56.20
